sensor_id;sensor_type;location;lat;lon;timestamp;P1;durP1;ratioP1;P2;durP2;ratioP2
8044;SDS011;4065;48.754;9.982;2022-08-19T00:02:03;21.38;;;18.77;;
8044;SDS011;4065;48.754;9.982;2022-08-19T00:05:05;21.17;;;19.02;;
8044;SDS011;4065;48.754;9.982;2022-08-19T00:08:07;22.23;;;19.92;;
8044;SDS011;4065;48.754;9.982;2022-08-19T00:11:09;21.13;;;19.10;;
8044;SDS011;4065;48.754;9.982;2022-08-19T00:14:13;20.80;;;18.60;;
8044;SDS011;4065;48.754;9.982;2022-08-19T00:17:15;22.67;;;20.23;;
8044;SDS011;4065;48.754;9.982;2022-08-19T00:20:18;24.92;;;20.55;;
8044;SDS011;4065;48.754;9.982;2022-08-19T00:23:21;19.70;;;17.80;;
8044;SDS011;4065;48.754;9.982;2022-08-19T00:26:22;21.52;;;19.40;;
8044;SDS011;4065;48.754;9.982;2022-08-19T00:29:26;22.58;;;20.17;;
8044;SDS011;4065;48.754;9.982;2022-08-19T00:32:27;23.30;;;20.98;;
8044;SDS011;4065;48.754;9.982;2022-08-19T00:35:29;21.98;;;19.77;;
8044;SDS011;4065;48.754;9.982;2022-08-19T00:38:30;23.77;;;21.38;;
8044;SDS011;4065;48.754;9.982;2022-08-19T00:41:32;23.17;;;20.83;;
8044;SDS011;4065;48.754;9.982;2022-08-19T00:44:35;24.27;;;21.70;;
8044;SDS011;4065;48.754;9.982;2022-08-19T00:47:37;23.85;;;21.10;;
8044;SDS011;4065;48.754;9.982;2022-08-19T00:50:39;24.35;;;21.73;;
8044;SDS011;4065;48.754;9.982;2022-08-19T00:53:43;22.98;;;20.67;;
8044;SDS011;4065;48.754;9.982;2022-08-19T00:56:44;27.00;;;23.08;;
8044;SDS011;4065;48.754;9.982;2022-08-19T00:59:47;26.40;;;23.00;;
8044;SDS011;4065;48.754;9.982;2022-08-19T01:02:53;26.23;;;23.52;;
8044;SDS011;4065;48.754;9.982;2022-08-19T01:05:55;23.40;;;20.95;;
8044;SDS011;4065;48.754;9.982;2022-08-19T01:08:57;24.48;;;21.85;;
8044;SDS011;4065;48.754;9.982;2022-08-19T01:11:59;25.60;;;23.08;;
8044;SDS011;4065;48.754;9.982;2022-08-19T01:15:03;24.48;;;21.70;;
8044;SDS011;4065;48.754;9.982;2022-08-19T01:18:08;27.98;;;25.15;;
8044;SDS011;4065;48.754;9.982;2022-08-19T01:21:20;26.02;;;23.33;;
8044;SDS011;4065;48.754;9.982;2022-08-19T01:24:26;24.20;;;21.70;;
8044;SDS011;4065;48.754;9.982;2022-08-19T01:27:36;26.13;;;23.52;;
8044;SDS011;4065;48.754;9.982;2022-08-19T01:30:38;24.15;;;21.77;;
8044;SDS011;4065;48.754;9.982;2022-08-19T01:33:40;27.67;;;23.90;;
8044;SDS011;4065;48.754;9.982;2022-08-19T01:36:42;26.95;;;23.13;;
8044;SDS011;4065;48.754;9.982;2022-08-19T01:39:48;24.85;;;22.25;;
8044;SDS011;4065;48.754;9.982;2022-08-19T01:42:50;25.55;;;22.90;;
8044;SDS011;4065;48.754;9.982;2022-08-19T01:45:53;24.38;;;21.77;;
8044;SDS011;4065;48.754;9.982;2022-08-19T01:48:54;27.10;;;24.35;;
8044;SDS011;4065;48.754;9.982;2022-08-19T01:51:56;25.40;;;22.80;;
8044;SDS011;4065;48.754;9.982;2022-08-19T01:54:59;25.77;;;22.92;;
8044;SDS011;4065;48.754;9.982;2022-08-19T01:58:02;26.77;;;24.13;;
8044;SDS011;4065;48.754;9.982;2022-08-19T02:01:04;27.42;;;24.67;;
8044;SDS011;4065;48.754;9.982;2022-08-19T02:04:07;25.30;;;22.80;;
8044;SDS011;4065;48.754;9.982;2022-08-19T02:07:08;25.52;;;22.27;;
8044;SDS011;4065;48.754;9.982;2022-08-19T02:10:13;24.80;;;22.30;;
8044;SDS011;4065;48.754;9.982;2022-08-19T02:13:16;25.70;;;23.10;;
8044;SDS011;4065;48.754;9.982;2022-08-19T02:16:18;26.15;;;23.63;;
8044;SDS011;4065;48.754;9.982;2022-08-19T02:19:20;24.25;;;21.65;;
8044;SDS011;4065;48.754;9.982;2022-08-19T02:22:22;25.95;;;23.38;;
8044;SDS011;4065;48.754;9.982;2022-08-19T02:25:27;27.23;;;24.35;;
8044;SDS011;4065;48.754;9.982;2022-08-19T02:28:29;26.25;;;23.45;;
8044;SDS011;4065;48.754;9.982;2022-08-19T02:31:32;25.65;;;23.00;;
8044;SDS011;4065;48.754;9.982;2022-08-19T02:34:34;25.52;;;22.92;;
8044;SDS011;4065;48.754;9.982;2022-08-19T02:37:35;26.27;;;23.45;;
8044;SDS011;4065;48.754;9.982;2022-08-19T02:40:56;27.95;;;25.08;;
8044;SDS011;4065;48.754;9.982;2022-08-19T02:44:01;28.50;;;24.67;;
8044;SDS011;4065;48.754;9.982;2022-08-19T02:47:04;30.38;;;26.15;;
8044;SDS011;4065;48.754;9.982;2022-08-19T02:50:06;29.00;;;25.98;;
8044;SDS011;4065;48.754;9.982;2022-08-19T02:53:08;32.22;;;28.20;;
8044;SDS011;4065;48.754;9.982;2022-08-19T02:56:11;31.98;;;28.67;;
8044;SDS011;4065;48.754;9.982;2022-08-19T02:59:13;30.75;;;27.17;;
8044;SDS011;4065;48.754;9.982;2022-08-19T03:02:14;31.42;;;28.13;;
8044;SDS011;4065;48.754;9.982;2022-08-19T03:05:16;35.20;;;29.02;;
8044;SDS011;4065;48.754;9.982;2022-08-19T03:08:18;36.58;;;31.23;;
8044;SDS011;4065;48.754;9.982;2022-08-19T03:11:22;36.10;;;29.95;;
8044;SDS011;4065;48.754;9.982;2022-08-19T03:14:25;36.60;;;32.42;;
8044;SDS011;4065;48.754;9.982;2022-08-19T03:17:27;37.97;;;31.60;;
8044;SDS011;4065;48.754;9.982;2022-08-19T03:20:29;38.38;;;32.28;;
8044;SDS011;4065;48.754;9.982;2022-08-19T03:23:31;38.67;;;33.72;;
8044;SDS011;4065;48.754;9.982;2022-08-19T03:26:37;37.05;;;30.55;;
8044;SDS011;4065;48.754;9.982;2022-08-19T03:29:40;34.70;;;30.65;;
8044;SDS011;4065;48.754;9.982;2022-08-19T03:32:41;40.67;;;33.78;;
8044;SDS011;4065;48.754;9.982;2022-08-19T03:35:43;36.95;;;31.80;;
8044;SDS011;4065;48.754;9.982;2022-08-19T03:38:46;40.20;;;32.30;;
8044;SDS011;4065;48.754;9.982;2022-08-19T03:41:51;41.28;;;34.67;;
8044;SDS011;4065;48.754;9.982;2022-08-19T03:44:57;46.88;;;35.55;;
8044;SDS011;4065;48.754;9.982;2022-08-19T03:47:59;37.33;;;31.05;;
8044;SDS011;4065;48.754;9.982;2022-08-19T03:51:01;36.80;;;31.10;;
8044;SDS011;4065;48.754;9.982;2022-08-19T03:54:04;36.72;;;31.52;;
8044;SDS011;4065;48.754;9.982;2022-08-19T03:57:09;40.30;;;33.90;;
8044;SDS011;4065;48.754;9.982;2022-08-19T04:00:11;42.85;;;33.95;;
8044;SDS011;4065;48.754;9.982;2022-08-19T04:03:14;40.80;;;32.50;;
8044;SDS011;4065;48.754;9.982;2022-08-19T04:06:16;38.08;;;32.13;;
8044;SDS011;4065;48.754;9.982;2022-08-19T04:09:21;38.17;;;31.52;;
8044;SDS011;4065;48.754;9.982;2022-08-19T04:12:24;41.72;;;34.08;;
8044;SDS011;4065;48.754;9.982;2022-08-19T04:15:26;41.00;;;34.97;;
8044;SDS011;4065;48.754;9.982;2022-08-19T04:18:30;41.28;;;34.47;;
8044;SDS011;4065;48.754;9.982;2022-08-19T04:21:33;44.58;;;36.05;;
8044;SDS011;4065;48.754;9.982;2022-08-19T04:24:35;43.17;;;35.72;;
8044;SDS011;4065;48.754;9.982;2022-08-19T04:27:38;43.58;;;34.65;;
8044;SDS011;4065;48.754;9.982;2022-08-19T04:30:44;41.00;;;33.35;;
8044;SDS011;4065;48.754;9.982;2022-08-19T04:33:47;39.78;;;32.65;;
8044;SDS011;4065;48.754;9.982;2022-08-19T04:36:50;39.55;;;33.38;;
8044;SDS011;4065;48.754;9.982;2022-08-19T04:39:53;40.85;;;32.70;;
8044;SDS011;4065;48.754;9.982;2022-08-19T04:43:13;41.75;;;33.95;;
8044;SDS011;4065;48.754;9.982;2022-08-19T04:46:15;44.15;;;34.85;;
8044;SDS011;4065;48.754;9.982;2022-08-19T04:49:19;42.42;;;33.58;;
8044;SDS011;4065;48.754;9.982;2022-08-19T04:52:22;37.72;;;31.75;;
8044;SDS011;4065;48.754;9.982;2022-08-19T04:55:24;41.65;;;32.92;;
8044;SDS011;4065;48.754;9.982;2022-08-19T04:58:28;43.88;;;35.15;;
8044;SDS011;4065;48.754;9.982;2022-08-19T05:01:30;36.78;;;31.70;;
8044;SDS011;4065;48.754;9.982;2022-08-19T05:04:33;38.08;;;31.35;;
8044;SDS011;4065;48.754;9.982;2022-08-19T05:07:39;35.10;;;29.70;;
8044;SDS011;4065;48.754;9.982;2022-08-19T05:10:40;34.55;;;29.42;;
8044;SDS011;4065;48.754;9.982;2022-08-19T05:13:44;32.70;;;28.58;;
8044;SDS011;4065;48.754;9.982;2022-08-19T05:16:47;40.15;;;33.33;;
8044;SDS011;4065;48.754;9.982;2022-08-19T05:19:49;34.95;;;28.85;;
8044;SDS011;4065;48.754;9.982;2022-08-19T05:23:09;33.92;;;29.20;;
8044;SDS011;4065;48.754;9.982;2022-08-19T05:26:11;35.45;;;29.40;;
8044;SDS011;4065;48.754;9.982;2022-08-19T05:29:15;36.97;;;31.77;;
8044;SDS011;4065;48.754;9.982;2022-08-19T05:32:19;36.28;;;30.25;;
8044;SDS011;4065;48.754;9.982;2022-08-19T05:35:24;37.47;;;30.98;;
8044;SDS011;4065;48.754;9.982;2022-08-19T05:38:26;39.50;;;31.70;;
8044;SDS011;4065;48.754;9.982;2022-08-19T05:41:28;36.60;;;29.45;;
8044;SDS011;4065;48.754;9.982;2022-08-19T05:44:33;39.42;;;31.88;;
8044;SDS011;4065;48.754;9.982;2022-08-19T05:47:36;38.40;;;31.13;;
8044;SDS011;4065;48.754;9.982;2022-08-19T05:50:38;40.65;;;33.10;;
8044;SDS011;4065;48.754;9.982;2022-08-19T05:53:41;38.67;;;31.05;;
8044;SDS011;4065;48.754;9.982;2022-08-19T05:56:45;40.80;;;32.13;;
8044;SDS011;4065;48.754;9.982;2022-08-19T05:59:49;42.83;;;34.17;;
8044;SDS011;4065;48.754;9.982;2022-08-19T06:02:51;40.50;;;32.05;;
8044;SDS011;4065;48.754;9.982;2022-08-19T06:05:56;42.65;;;32.85;;
8044;SDS011;4065;48.754;9.982;2022-08-19T06:08:59;40.35;;;32.17;;
8044;SDS011;4065;48.754;9.982;2022-08-19T06:12:02;44.40;;;33.47;;
8044;SDS011;4065;48.754;9.982;2022-08-19T06:15:07;42.65;;;34.78;;
8044;SDS011;4065;48.754;9.982;2022-08-19T06:18:11;44.85;;;34.88;;
8044;SDS011;4065;48.754;9.982;2022-08-19T06:21:15;46.58;;;34.63;;
8044;SDS011;4065;48.754;9.982;2022-08-19T06:24:18;42.80;;;35.25;;
8044;SDS011;4065;48.754;9.982;2022-08-19T06:27:23;40.00;;;32.38;;
8044;SDS011;4065;48.754;9.982;2022-08-19T06:30:28;43.95;;;33.85;;
8044;SDS011;4065;48.754;9.982;2022-08-19T06:33:30;43.30;;;33.72;;
8044;SDS011;4065;48.754;9.982;2022-08-19T06:36:33;42.40;;;34.80;;
8044;SDS011;4065;48.754;9.982;2022-08-19T06:39:37;47.00;;;35.72;;
8044;SDS011;4065;48.754;9.982;2022-08-19T06:42:40;43.08;;;34.47;;
8044;SDS011;4065;48.754;9.982;2022-08-19T06:45:46;42.80;;;34.15;;
8044;SDS011;4065;48.754;9.982;2022-08-19T06:48:52;41.47;;;32.75;;
8044;SDS011;4065;48.754;9.982;2022-08-19T06:51:55;40.13;;;33.65;;
8044;SDS011;4065;48.754;9.982;2022-08-19T06:54:58;40.45;;;33.00;;
8044;SDS011;4065;48.754;9.982;2022-08-19T06:58:03;50.10;;;37.10;;
8044;SDS011;4065;48.754;9.982;2022-08-19T07:01:06;45.33;;;35.05;;
8044;SDS011;4065;48.754;9.982;2022-08-19T07:04:09;42.20;;;34.22;;
8044;SDS011;4065;48.754;9.982;2022-08-19T07:07:11;41.83;;;34.35;;
8044;SDS011;4065;48.754;9.982;2022-08-19T07:10:14;47.20;;;36.28;;
8044;SDS011;4065;48.754;9.982;2022-08-19T07:13:16;45.75;;;35.53;;
8044;SDS011;4065;48.754;9.982;2022-08-19T07:16:19;52.38;;;38.33;;
8044;SDS011;4065;48.754;9.982;2022-08-19T07:19:22;47.22;;;36.08;;
8044;SDS011;4065;48.754;9.982;2022-08-19T07:22:26;46.67;;;35.53;;
8044;SDS011;4065;48.754;9.982;2022-08-19T07:25:27;45.80;;;36.95;;
8044;SDS011;4065;48.754;9.982;2022-08-19T07:28:29;45.35;;;36.08;;
8044;SDS011;4065;48.754;9.982;2022-08-19T07:31:32;44.72;;;34.78;;
8044;SDS011;4065;48.754;9.982;2022-08-19T07:34:36;45.20;;;36.47;;
8044;SDS011;4065;48.754;9.982;2022-08-19T07:37:40;49.67;;;37.92;;
8044;SDS011;4065;48.754;9.982;2022-08-19T07:40:44;45.42;;;36.30;;
8044;SDS011;4065;48.754;9.982;2022-08-19T07:43:46;44.15;;;34.90;;
8044;SDS011;4065;48.754;9.982;2022-08-19T07:46:50;47.25;;;36.70;;
8044;SDS011;4065;48.754;9.982;2022-08-19T07:49:53;45.75;;;35.67;;
8044;SDS011;4065;48.754;9.982;2022-08-19T07:52:55;46.45;;;36.60;;
8044;SDS011;4065;48.754;9.982;2022-08-19T07:55:57;49.05;;;38.17;;
8044;SDS011;4065;48.754;9.982;2022-08-19T07:59:03;47.65;;;36.67;;
8044;SDS011;4065;48.754;9.982;2022-08-19T08:02:10;49.83;;;37.28;;
8044;SDS011;4065;48.754;9.982;2022-08-19T08:05:12;48.65;;;37.58;;
8044;SDS011;4065;48.754;9.982;2022-08-19T08:08:31;50.00;;;37.28;;
8044;SDS011;4065;48.754;9.982;2022-08-19T08:11:51;51.55;;;39.00;;
8044;SDS011;4065;48.754;9.982;2022-08-19T08:14:57;46.17;;;37.22;;
8044;SDS011;4065;48.754;9.982;2022-08-19T08:18:06;49.72;;;37.05;;
8044;SDS011;4065;48.754;9.982;2022-08-19T08:21:07;52.30;;;39.10;;
8044;SDS011;4065;48.754;9.982;2022-08-19T08:24:10;50.72;;;37.92;;
8044;SDS011;4065;48.754;9.982;2022-08-19T08:27:12;50.70;;;37.60;;
8044;SDS011;4065;48.754;9.982;2022-08-19T08:30:16;52.35;;;39.75;;
8044;SDS011;4065;48.754;9.982;2022-08-19T08:33:22;50.03;;;38.47;;
8044;SDS011;4065;48.754;9.982;2022-08-19T08:36:24;49.80;;;37.05;;
8044;SDS011;4065;48.754;9.982;2022-08-19T08:39:27;53.65;;;40.65;;
8044;SDS011;4065;48.754;9.982;2022-08-19T08:42:30;56.10;;;38.35;;
8044;SDS011;4065;48.754;9.982;2022-08-19T08:45:38;51.78;;;38.42;;
8044;SDS011;4065;48.754;9.982;2022-08-19T08:48:50;48.35;;;37.03;;
8044;SDS011;4065;48.754;9.982;2022-08-19T08:51:59;55.20;;;40.10;;
8044;SDS011;4065;48.754;9.982;2022-08-19T08:55:07;45.08;;;34.95;;
8044;SDS011;4065;48.754;9.982;2022-08-19T08:58:12;50.45;;;38.60;;
8044;SDS011;4065;48.754;9.982;2022-08-19T09:01:16;48.60;;;37.33;;
8044;SDS011;4065;48.754;9.982;2022-08-19T09:04:21;47.83;;;37.58;;
8044;SDS011;4065;48.754;9.982;2022-08-19T09:07:30;48.90;;;37.28;;
8044;SDS011;4065;48.754;9.982;2022-08-19T09:10:43;44.17;;;34.88;;
8044;SDS011;4065;48.754;9.982;2022-08-19T09:13:48;50.65;;;37.42;;
8044;SDS011;4065;48.754;9.982;2022-08-19T09:16:57;42.90;;;35.03;;
8044;SDS011;4065;48.754;9.982;2022-08-19T09:20:05;48.47;;;36.17;;
8044;SDS011;4065;48.754;9.982;2022-08-19T09:23:10;42.65;;;34.58;;
8044;SDS011;4065;48.754;9.982;2022-08-19T09:26:13;40.05;;;32.28;;
8044;SDS011;4065;48.754;9.982;2022-08-19T09:29:16;44.03;;;34.15;;
8044;SDS011;4065;48.754;9.982;2022-08-19T09:32:17;41.40;;;34.05;;
8044;SDS011;4065;48.754;9.982;2022-08-19T09:35:21;42.33;;;34.17;;
8044;SDS011;4065;48.754;9.982;2022-08-19T09:38:24;41.45;;;33.83;;
8044;SDS011;4065;48.754;9.982;2022-08-19T09:41:26;45.70;;;35.00;;
8044;SDS011;4065;48.754;9.982;2022-08-19T09:44:28;47.90;;;36.00;;
8044;SDS011;4065;48.754;9.982;2022-08-19T09:47:30;42.17;;;33.88;;
8044;SDS011;4065;48.754;9.982;2022-08-19T09:50:33;42.45;;;33.70;;
8044;SDS011;4065;48.754;9.982;2022-08-19T09:53:38;48.60;;;36.42;;
8044;SDS011;4065;48.754;9.982;2022-08-19T09:56:43;44.88;;;37.03;;
8044;SDS011;4065;48.754;9.982;2022-08-19T09:59:45;48.05;;;36.03;;
8044;SDS011;4065;48.754;9.982;2022-08-19T10:02:48;46.72;;;37.17;;
8044;SDS011;4065;48.754;9.982;2022-08-19T10:05:53;47.40;;;38.22;;
8044;SDS011;4065;48.754;9.982;2022-08-19T10:08:56;45.90;;;36.47;;
8044;SDS011;4065;48.754;9.982;2022-08-19T10:11:58;43.70;;;34.25;;
8044;SDS011;4065;48.754;9.982;2022-08-19T10:15:05;44.90;;;35.20;;
8044;SDS011;4065;48.754;9.982;2022-08-19T10:18:07;44.35;;;36.75;;
8044;SDS011;4065;48.754;9.982;2022-08-19T10:21:14;47.97;;;36.55;;
8044;SDS011;4065;48.754;9.982;2022-08-19T10:24:17;51.13;;;37.95;;
8044;SDS011;4065;48.754;9.982;2022-08-19T10:27:20;46.83;;;35.58;;
8044;SDS011;4065;48.754;9.982;2022-08-19T10:30:22;45.25;;;35.95;;
8044;SDS011;4065;48.754;9.982;2022-08-19T10:33:24;50.05;;;37.47;;
8044;SDS011;4065;48.754;9.982;2022-08-19T10:36:30;44.08;;;34.97;;
8044;SDS011;4065;48.754;9.982;2022-08-19T10:39:35;49.45;;;38.83;;
8044;SDS011;4065;48.754;9.982;2022-08-19T10:42:39;41.28;;;34.25;;
8044;SDS011;4065;48.754;9.982;2022-08-19T10:45:40;45.28;;;37.00;;
8044;SDS011;4065;48.754;9.982;2022-08-19T10:48:43;40.25;;;33.15;;
8044;SDS011;4065;48.754;9.982;2022-08-19T10:51:50;43.67;;;33.88;;
8044;SDS011;4065;48.754;9.982;2022-08-19T10:55:09;44.50;;;34.67;;
8044;SDS011;4065;48.754;9.982;2022-08-19T10:58:28;40.13;;;32.75;;
8044;SDS011;4065;48.754;9.982;2022-08-19T11:01:33;45.97;;;37.42;;
8044;SDS011;4065;48.754;9.982;2022-08-19T11:04:36;46.83;;;36.85;;
8044;SDS011;4065;48.754;9.982;2022-08-19T11:07:40;49.33;;;36.42;;
8044;SDS011;4065;48.754;9.982;2022-08-19T11:10:44;46.95;;;36.80;;
8044;SDS011;4065;48.754;9.982;2022-08-19T11:13:46;43.88;;;36.03;;
8044;SDS011;4065;48.754;9.982;2022-08-19T11:16:50;42.25;;;35.13;;
8044;SDS011;4065;48.754;9.982;2022-08-19T11:19:55;46.13;;;35.53;;
8044;SDS011;4065;48.754;9.982;2022-08-19T11:22:59;41.70;;;34.08;;
8044;SDS011;4065;48.754;9.982;2022-08-19T11:26:00;40.95;;;33.00;;
8044;SDS011;4065;48.754;9.982;2022-08-19T11:29:03;38.95;;;31.88;;
8044;SDS011;4065;48.754;9.982;2022-08-19T11:32:07;34.60;;;29.63;;
8044;SDS011;4065;48.754;9.982;2022-08-19T11:35:10;32.10;;;27.13;;
8044;SDS011;4065;48.754;9.982;2022-08-19T11:38:13;32.67;;;27.27;;
8044;SDS011;4065;48.754;9.982;2022-08-19T11:41:15;29.83;;;24.52;;
8044;SDS011;4065;48.754;9.982;2022-08-19T11:44:18;23.65;;;20.58;;
8044;SDS011;4065;48.754;9.982;2022-08-19T11:47:20;24.05;;;19.23;;
8044;SDS011;4065;48.754;9.982;2022-08-19T11:50:22;19.05;;;15.98;;
8044;SDS011;4065;48.754;9.982;2022-08-19T11:53:26;17.45;;;15.20;;
8044;SDS011;4065;48.754;9.982;2022-08-19T11:56:28;15.50;;;12.88;;
8044;SDS011;4065;48.754;9.982;2022-08-19T11:59:32;14.77;;;12.60;;
8044;SDS011;4065;48.754;9.982;2022-08-19T12:02:34;12.60;;;10.57;;
8044;SDS011;4065;48.754;9.982;2022-08-19T12:05:36;11.00;;;9.85;;
8044;SDS011;4065;48.754;9.982;2022-08-19T12:08:41;13.05;;;11.27;;
8044;SDS011;4065;48.754;9.982;2022-08-19T12:11:43;14.05;;;11.90;;
8044;SDS011;4065;48.754;9.982;2022-08-19T12:14:45;15.55;;;13.50;;
8044;SDS011;4065;48.754;9.982;2022-08-19T12:17:47;18.48;;;16.45;;
8044;SDS011;4065;48.754;9.982;2022-08-19T12:20:50;19.23;;;17.23;;
8044;SDS011;4065;48.754;9.982;2022-08-19T12:23:57;17.50;;;15.63;;
8044;SDS011;4065;48.754;9.982;2022-08-19T12:27:00;19.40;;;17.35;;
8044;SDS011;4065;48.754;9.982;2022-08-19T12:30:03;21.95;;;17.90;;
8044;SDS011;4065;48.754;9.982;2022-08-19T12:33:05;18.02;;;16.15;;
8044;SDS011;4065;48.754;9.982;2022-08-19T12:36:08;18.38;;;16.08;;
8044;SDS011;4065;48.754;9.982;2022-08-19T12:39:12;16.52;;;14.63;;
8044;SDS011;4065;48.754;9.982;2022-08-19T12:42:14;14.38;;;12.90;;
8044;SDS011;4065;48.754;9.982;2022-08-19T12:45:18;11.90;;;10.60;;
8044;SDS011;4065;48.754;9.982;2022-08-19T12:48:20;10.88;;;9.77;;
8044;SDS011;4065;48.754;9.982;2022-08-19T12:51:22;9.43;;;8.25;;
8044;SDS011;4065;48.754;9.982;2022-08-19T12:54:26;10.50;;;7.88;;
8044;SDS011;4065;48.754;9.982;2022-08-19T12:57:29;8.77;;;7.93;;
8044;SDS011;4065;48.754;9.982;2022-08-19T13:00:31;9.13;;;7.57;;
8044;SDS011;4065;48.754;9.982;2022-08-19T13:03:33;7.45;;;6.75;;
8044;SDS011;4065;48.754;9.982;2022-08-19T13:06:36;6.20;;;5.60;;
8044;SDS011;4065;48.754;9.982;2022-08-19T13:09:40;10.40;;;8.98;;
8044;SDS011;4065;48.754;9.982;2022-08-19T13:12:42;10.32;;;9.25;;
8044;SDS011;4065;48.754;9.982;2022-08-19T13:15:44;10.65;;;8.32;;
8044;SDS011;4065;48.754;9.982;2022-08-19T13:18:47;8.00;;;7.30;;
8044;SDS011;4065;48.754;9.982;2022-08-19T13:21:52;8.27;;;7.47;;
8044;SDS011;4065;48.754;9.982;2022-08-19T13:24:57;8.18;;;7.43;;
8044;SDS011;4065;48.754;9.982;2022-08-19T13:27:58;9.40;;;8.50;;
8044;SDS011;4065;48.754;9.982;2022-08-19T13:31:01;9.77;;;8.73;;
8044;SDS011;4065;48.754;9.982;2022-08-19T13:34:26;14.93;;;13.40;;
8044;SDS011;4065;48.754;9.982;2022-08-19T13:37:31;17.33;;;15.30;;
8044;SDS011;4065;48.754;9.982;2022-08-19T13:40:47;16.85;;;15.05;;
8044;SDS011;4065;48.754;9.982;2022-08-19T13:43:50;16.52;;;14.80;;
8044;SDS011;4065;48.754;9.982;2022-08-19T13:46:52;16.70;;;15.02;;
8044;SDS011;4065;48.754;9.982;2022-08-19T13:49:57;17.02;;;15.25;;
8044;SDS011;4065;48.754;9.982;2022-08-19T13:52:59;17.65;;;15.77;;
8044;SDS011;4065;48.754;9.982;2022-08-19T13:56:06;19.60;;;16.52;;
8044;SDS011;4065;48.754;9.982;2022-08-19T13:59:11;18.83;;;16.63;;
8044;SDS011;4065;48.754;9.982;2022-08-19T14:02:13;22.20;;;17.75;;
8044;SDS011;4065;48.754;9.982;2022-08-19T14:05:15;19.38;;;16.77;;
8044;SDS011;4065;48.754;9.982;2022-08-19T14:08:17;18.80;;;16.88;;
8044;SDS011;4065;48.754;9.982;2022-08-19T14:11:21;18.05;;;16.15;;
8044;SDS011;4065;48.754;9.982;2022-08-19T14:14:23;19.25;;;16.60;;
8044;SDS011;4065;48.754;9.982;2022-08-19T14:17:25;20.33;;;18.10;;
8044;SDS011;4065;48.754;9.982;2022-08-19T14:20:27;22.52;;;19.08;;
8044;SDS011;4065;48.754;9.982;2022-08-19T14:23:29;20.90;;;18.48;;
8044;SDS011;4065;48.754;9.982;2022-08-19T14:26:32;20.25;;;18.20;;
8044;SDS011;4065;48.754;9.982;2022-08-19T14:29:34;19.95;;;17.85;;
8044;SDS011;4065;48.754;9.982;2022-08-19T14:32:36;20.98;;;18.15;;
8044;SDS011;4065;48.754;9.982;2022-08-19T14:35:38;20.77;;;18.27;;
8044;SDS011;4065;48.754;9.982;2022-08-19T14:38:44;19.10;;;17.10;;
8044;SDS011;4065;48.754;9.982;2022-08-19T14:41:51;22.60;;;18.30;;
8044;SDS011;4065;48.754;9.982;2022-08-19T14:44:53;20.58;;;18.38;;
8044;SDS011;4065;48.754;9.982;2022-08-19T14:47:55;19.85;;;17.60;;
8044;SDS011;4065;48.754;9.982;2022-08-19T14:50:59;20.23;;;17.55;;
8044;SDS011;4065;48.754;9.982;2022-08-19T14:54:01;19.83;;;17.75;;
8044;SDS011;4065;48.754;9.982;2022-08-19T14:57:04;22.60;;;19.15;;
8044;SDS011;4065;48.754;9.982;2022-08-19T15:00:06;22.30;;;19.90;;
8044;SDS011;4065;48.754;9.982;2022-08-19T15:03:11;26.35;;;20.33;;
8044;SDS011;4065;48.754;9.982;2022-08-19T15:06:13;28.30;;;20.48;;
8044;SDS011;4065;48.754;9.982;2022-08-19T15:09:15;24.98;;;21.33;;
8044;SDS011;4065;48.754;9.982;2022-08-19T15:12:19;23.58;;;20.05;;
8044;SDS011;4065;48.754;9.982;2022-08-19T15:15:22;23.15;;;19.98;;
8044;SDS011;4065;48.754;9.982;2022-08-19T15:18:24;23.35;;;20.95;;
8044;SDS011;4065;48.754;9.982;2022-08-19T15:21:26;23.77;;;20.40;;
8044;SDS011;4065;48.754;9.982;2022-08-19T15:24:30;21.50;;;19.20;;
8044;SDS011;4065;48.754;9.982;2022-08-19T15:27:36;23.35;;;19.83;;
8044;SDS011;4065;48.754;9.982;2022-08-19T15:30:39;21.38;;;19.15;;
8044;SDS011;4065;48.754;9.982;2022-08-19T15:33:44;23.60;;;19.83;;
8044;SDS011;4065;48.754;9.982;2022-08-19T15:36:46;20.85;;;18.65;;
8044;SDS011;4065;48.754;9.982;2022-08-19T15:39:48;19.58;;;17.52;;
8044;SDS011;4065;48.754;9.982;2022-08-19T15:42:51;20.45;;;18.30;;
8044;SDS011;4065;48.754;9.982;2022-08-19T15:45:56;20.40;;;17.17;;
8044;SDS011;4065;48.754;9.982;2022-08-19T15:48:58;19.13;;;17.23;;
8044;SDS011;4065;48.754;9.982;2022-08-19T15:52:00;20.20;;;18.08;;
8044;SDS011;4065;48.754;9.982;2022-08-19T15:55:05;20.63;;;18.35;;
8044;SDS011;4065;48.754;9.982;2022-08-19T15:58:09;19.30;;;17.30;;
8044;SDS011;4065;48.754;9.982;2022-08-19T16:01:30;18.65;;;16.75;;
8044;SDS011;4065;48.754;9.982;2022-08-19T16:05:01;19.17;;;17.00;;
8044;SDS011;4065;48.754;9.982;2022-08-19T16:08:20;19.60;;;16.88;;
8044;SDS011;4065;48.754;9.982;2022-08-19T16:11:24;19.17;;;16.77;;
8044;SDS011;4065;48.754;9.982;2022-08-19T16:14:31;20.13;;;17.73;;
8044;SDS011;4065;48.754;9.982;2022-08-19T16:17:34;20.00;;;17.90;;
8044;SDS011;4065;48.754;9.982;2022-08-19T16:20:44;17.10;;;15.45;;
8044;SDS011;4065;48.754;9.982;2022-08-19T16:23:46;18.85;;;16.88;;
8044;SDS011;4065;48.754;9.982;2022-08-19T16:26:51;19.70;;;17.67;;
8044;SDS011;4065;48.754;9.982;2022-08-19T16:29:54;19.38;;;17.38;;
8044;SDS011;4065;48.754;9.982;2022-08-19T16:32:56;19.85;;;17.85;;
8044;SDS011;4065;48.754;9.982;2022-08-19T16:35:58;18.63;;;16.83;;
8044;SDS011;4065;48.754;9.982;2022-08-19T16:39:00;18.70;;;16.75;;
8044;SDS011;4065;48.754;9.982;2022-08-19T16:42:02;19.08;;;16.27;;
8044;SDS011;4065;48.754;9.982;2022-08-19T16:45:08;22.17;;;19.77;;
8044;SDS011;4065;48.754;9.982;2022-08-19T16:48:11;23.02;;;19.58;;
8044;SDS011;4065;48.754;9.982;2022-08-19T16:51:13;21.13;;;18.90;;
8044;SDS011;4065;48.754;9.982;2022-08-19T16:54:15;21.10;;;17.38;;
8044;SDS011;4065;48.754;9.982;2022-08-19T16:57:17;19.35;;;17.35;;
8044;SDS011;4065;48.754;9.982;2022-08-19T17:00:21;17.00;;;15.18;;
8044;SDS011;4065;48.754;9.982;2022-08-19T17:03:23;18.35;;;16.45;;
8044;SDS011;4065;48.754;9.982;2022-08-19T17:06:28;17.63;;;15.73;;
8044;SDS011;4065;48.754;9.982;2022-08-19T17:09:31;16.95;;;14.75;;
8044;SDS011;4065;48.754;9.982;2022-08-19T17:12:33;18.40;;;16.58;;
8044;SDS011;4065;48.754;9.982;2022-08-19T17:15:39;17.05;;;15.25;;
8044;SDS011;4065;48.754;9.982;2022-08-19T17:18:42;19.52;;;17.52;;
8044;SDS011;4065;48.754;9.982;2022-08-19T17:21:44;18.70;;;16.75;;
8044;SDS011;4065;48.754;9.982;2022-08-19T17:24:46;19.45;;;17.45;;
8044;SDS011;4065;48.754;9.982;2022-08-19T17:27:48;17.67;;;15.95;;
8044;SDS011;4065;48.754;9.982;2022-08-19T17:30:53;16.55;;;14.95;;
8044;SDS011;4065;48.754;9.982;2022-08-19T17:33:57;16.25;;;14.55;;
8044;SDS011;4065;48.754;9.982;2022-08-19T17:37:00;17.73;;;15.82;;
8044;SDS011;4065;48.754;9.982;2022-08-19T17:40:06;22.55;;;19.45;;
8044;SDS011;4065;48.754;9.982;2022-08-19T17:43:10;18.92;;;16.70;;
8044;SDS011;4065;48.754;9.982;2022-08-19T17:46:16;17.88;;;16.13;;
8044;SDS011;4065;48.754;9.982;2022-08-19T17:49:18;19.83;;;17.42;;
8044;SDS011;4065;48.754;9.982;2022-08-19T17:52:21;18.50;;;16.70;;
8044;SDS011;4065;48.754;9.982;2022-08-19T17:55:23;19.58;;;17.38;;
8044;SDS011;4065;48.754;9.982;2022-08-19T17:58:25;19.92;;;17.85;;
8044;SDS011;4065;48.754;9.982;2022-08-19T18:01:28;20.67;;;18.58;;
8044;SDS011;4065;48.754;9.982;2022-08-19T18:04:33;21.10;;;18.98;;
8044;SDS011;4065;48.754;9.982;2022-08-19T18:07:36;26.95;;;22.45;;
8044;SDS011;4065;48.754;9.982;2022-08-19T18:10:38;21.15;;;18.85;;
8044;SDS011;4065;48.754;9.982;2022-08-19T18:13:41;24.88;;;22.30;;
8044;SDS011;4065;48.754;9.982;2022-08-19T18:16:51;17.92;;;16.13;;
8044;SDS011;4065;48.754;9.982;2022-08-19T18:19:54;20.15;;;18.15;;
8044;SDS011;4065;48.754;9.982;2022-08-19T18:22:57;21.98;;;19.67;;
8044;SDS011;4065;48.754;9.982;2022-08-19T18:26:00;23.98;;;21.42;;
8044;SDS011;4065;48.754;9.982;2022-08-19T18:29:04;22.55;;;20.17;;